createdAt,value
2016-07-12T00:00:38.981Z,77.33
2016-07-12T00:01:38.959Z,77.23
2016-07-12T00:02:38.947Z,77.13
2016-07-12T00:03:38.948Z,77.42
2016-07-12T00:04:38.922Z,77.13
2016-07-12T00:05:38.919Z,77.04
2016-07-12T00:06:38.201Z,77.42
2016-07-12T00:07:38.187Z,77.42
2016-07-12T00:08:38.883Z,77.42
2016-07-12T00:09:38.871Z,77.42
2016-07-12T00:10:38.154Z,77.51
2016-07-12T00:11:38.853Z,77.51
2016-07-12T00:12:38.840Z,77.71
2016-07-12T00:13:38.124Z,77.51
2016-07-12T00:14:38.822Z,77.61
2016-07-12T00:15:38.098Z,77.61
2016-07-12T00:16:38.109Z,77.8
2016-07-12T00:17:38.793Z,77.51
2016-07-12T00:18:38.774Z,77.67
2016-07-12T00:19:38.057Z,77.9
2016-07-12T00:20:38.752Z,77.42
2016-07-12T00:21:38.034Z,77.58
2016-07-12T00:22:38.028Z,77.48
2016-07-12T00:23:38.012Z,77.61
2016-07-12T00:24:38.207Z,77.71
2016-07-12T00:25:38.694Z,77.67
2016-07-12T00:26:38.736Z,77.42
2016-07-12T00:27:38.677Z,77.51
2016-07-12T00:28:37.956Z,77.8
2016-07-12T00:29:37.946Z,77.8
2016-07-12T00:30:37.937Z,77.51
2016-07-12T00:31:38.636Z,77.61
2016-07-12T00:32:37.916Z,77.51
2016-07-12T00:33:38.611Z,77.61
2016-07-12T00:34:38.598Z,77.61
2016-07-12T00:35:37.883Z,77.8
2016-07-12T00:36:38.578Z,77.61
2016-07-12T00:37:37.856Z,77.48
2016-07-12T00:38:37.851Z,77.51
2016-07-12T00:39:37.841Z,77.76
2016-07-12T00:40:38.533Z,77.42
2016-07-12T00:41:37.816Z,77.71
2016-07-12T00:42:37.811Z,77.58
2016-07-12T00:43:37.792Z,77.61
2016-07-12T00:44:37.784Z,77.8
2016-07-12T00:45:37.773Z,77.58
2016-07-12T00:46:37.761Z,77.58
2016-07-12T00:47:37.750Z,77.38
2016-07-12T00:48:37.740Z,77.67
2016-07-12T00:49:37.734Z,77.76
2016-07-12T00:50:37.714Z,77.58
2016-07-12T00:51:37.705Z,77.38
2016-07-12T00:52:38.406Z,77.58
2016-07-12T00:53:37.686Z,77.48
2016-07-12T00:54:38.380Z,77.76
2016-07-12T00:55:38.371Z,77.86
2016-07-12T00:56:37.652Z,77.58
2016-07-12T00:57:37.641Z,77.95
2016-07-12T00:58:37.630Z,78.44
2016-07-12T00:59:38.329Z,78.63
2016-07-12T01:00:38.312Z,78.15
2016-07-12T01:01:37.598Z,78.34
2016-07-12T01:02:38.291Z,78.15
2016-07-12T01:03:37.574Z,77.95
2016-07-12T01:04:37.564Z,78.05
2016-07-12T01:05:38.259Z,78.25
2016-07-12T01:06:38.252Z,78.05
2016-07-12T01:07:38.239Z,78.63
2016-07-12T01:08:37.521Z,78.92
2016-07-12T01:09:38.217Z,79.21
2016-07-12T01:10:38.204Z,78.34
2016-07-12T01:11:37.484Z,78.44
2016-07-12T01:12:37.478Z,78.72
2016-07-12T01:13:37.462Z,78.44
2016-07-12T01:14:38.160Z,78.72
2016-07-12T01:15:37.444Z,79.39
2016-07-12T01:16:37.434Z,78.82
2016-07-12T01:17:37.421Z,79.01
2016-07-12T01:18:38.115Z,78.72
2016-07-12T01:19:37.398Z,79.01
2016-07-12T01:20:38.096Z,78.63
2016-07-12T01:21:38.089Z,78.92
2016-07-12T01:22:37.361Z,78.92
2016-07-12T01:23:38.060Z,78.72
2016-07-12T01:24:37.341Z,78.92
2016-07-12T01:25:37.328Z,78.92
2016-07-12T01:26:37.320Z,79.01
2016-07-12T01:27:38.019Z,78.82
2016-07-12T01:28:37.303Z,78.72
2016-07-12T01:29:37.991Z,78.82
2016-07-12T01:30:37.278Z,78.72
2016-07-12T01:31:37.269Z,79.07
2016-07-12T01:32:37.962Z,79.36
2016-07-12T01:33:37.244Z,78.88
2016-07-12T01:34:37.238Z,78.78
2016-07-12T01:35:37.222Z,78.49
2016-07-12T01:36:37.924Z,78.88
2016-07-12T01:37:37.906Z,78.59
2016-07-12T01:38:37.186Z,79.45
2016-07-12T01:39:37.887Z,79.45
2016-07-12T01:40:37.170Z,79.07
2016-07-12T01:41:37.862Z,79.64
2016-07-12T01:42:37.144Z,79.16
2016-07-12T01:43:37.136Z,79.83
2016-07-12T01:44:37.827Z,80.03
2016-07-12T01:45:37.817Z,80.22
2016-07-12T01:46:37.097Z,80.22
2016-07-12T01:47:37.088Z,80.32
2016-07-12T01:48:37.784Z,80.41
2016-07-12T01:49:37.066Z,80.6
2016-07-12T01:50:37.054Z,81.37
2016-07-12T01:51:37.754Z,80.89
2016-07-12T01:52:37.033Z,81.18
2016-07-12T01:53:37.726Z,81.08
2016-07-12T01:54:37.020Z,81.04
2016-07-12T01:55:36.998Z,80.99
2016-07-12T01:56:37.691Z,81.46
2016-07-12T01:57:37.680Z,80.89
2016-07-12T01:58:36.964Z,81.04
2016-07-12T01:59:37.659Z,81.08
2016-07-12T02:00:36.942Z,81.08
2016-07-12T02:01:36.932Z,80.99
2016-07-12T02:02:36.931Z,80.89
2016-07-12T02:03:37.617Z,80.51
2016-07-12T02:04:36.897Z,80.99
2016-07-12T02:05:37.593Z,81.08
2016-07-12T02:06:36.874Z,80.99
2016-07-12T02:07:36.862Z,81.18
2016-07-12T02:08:37.560Z,80.89
2016-07-12T02:09:36.840Z,81.18
2016-07-12T02:10:37.540Z,81.08
2016-07-12T02:11:37.524Z,81.18
2016-07-12T02:12:36.810Z,80.7
2016-07-12T02:13:37.504Z,81.27
2016-07-12T02:14:37.491Z,80.89
2016-07-12T02:15:37.477Z,80.99
2016-07-12T02:16:37.468Z,80.99
2016-07-12T02:17:36.752Z,81.18
2016-07-12T02:18:37.447Z,81.27
2016-07-12T02:19:36.726Z,81.33
2016-07-12T02:20:37.422Z,81.18
2016-07-12T02:21:36.702Z,81.46
2016-07-12T02:22:37.400Z,81.43
2016-07-12T02:23:36.682Z,81.23
2016-07-12T02:24:36.872Z,81.43
2016-07-12T02:25:37.366Z,81.43
2016-07-12T02:26:36.645Z,81.43
2016-07-12T02:27:36.636Z,81.43
2016-07-12T02:28:36.626Z,81.23
2016-07-12T02:29:36.610Z,81.33
2016-07-12T02:30:36.611Z,81.52
2016-07-12T02:31:36.589Z,81.71
2016-07-12T02:32:36.578Z,81.62
2016-07-12T02:33:37.274Z,81.43
2016-07-12T02:34:36.567Z,81.43
2016-07-12T02:35:36.543Z,81.43
2016-07-12T02:36:37.241Z,81.81
2016-07-12T02:37:36.533Z,82
2016-07-12T02:38:37.214Z,81.9
2016-07-12T02:39:36.496Z,82
2016-07-12T02:40:36.488Z,81.81
2016-07-12T02:41:36.495Z,81.71
2016-07-12T02:42:37.169Z,82.29
2016-07-12T02:43:37.190Z,82.38
2016-07-12T02:44:36.443Z,81.9
2016-07-12T02:45:36.430Z,82
2016-07-12T02:46:36.418Z,81.9
2016-07-12T02:47:37.115Z,82.09
2016-07-12T02:48:36.397Z,82.57
2016-07-12T02:49:37.094Z,82.19
2016-07-12T02:50:36.372Z,82.29
2016-07-12T02:51:37.070Z,82.76
2016-07-12T02:52:36.350Z,82.57
2016-07-12T02:53:37.042Z,82.48
2016-07-12T02:54:36.329Z,82.57
2016-07-12T02:55:37.022Z,82.38
2016-07-12T02:56:36.306Z,82.76
2016-07-12T02:57:37.004Z,82.76
2016-07-12T02:58:37.007Z,82.86
2016-07-12T02:59:36.982Z,82.67
2016-07-12T03:00:36.259Z,82.67
2016-07-12T03:01:36.247Z,82.38
2016-07-12T03:02:36.940Z,82.48
2016-07-12T03:03:36.220Z,82.48
2016-07-12T03:04:36.210Z,82.57
2016-07-12T03:05:36.904Z,82.96
2016-07-12T03:06:36.909Z,83.05
2016-07-12T03:07:36.188Z,82.67
2016-07-12T03:08:36.180Z,82.67
2016-07-12T03:09:36.151Z,83.44
2016-07-12T03:10:36.869Z,83.53
2016-07-12T03:11:36.129Z,83.05
2016-07-12T03:12:36.118Z,82.67
2016-07-12T03:13:36.814Z,83.34
2016-07-12T03:14:36.096Z,82.57
2016-07-12T03:15:36.082Z,83.15
2016-07-12T03:16:36.779Z,83.05
2016-07-12T03:17:36.074Z,82.86
2016-07-12T03:18:36.048Z,83.05
2016-07-12T03:19:36.034Z,83.53
2016-07-12T03:20:36.028Z,83.3
2016-07-12T03:21:36.718Z,83.78
2016-07-12T03:22:36.001Z,83.39
2016-07-12T03:23:36.002Z,83.97
2016-07-12T03:24:35.980Z,83.59
2016-07-12T03:25:36.672Z,83.59
2016-07-12T03:26:35.955Z,83.78
2016-07-12T03:27:35.942Z,83.97
2016-07-12T03:28:36.640Z,84.16
2016-07-12T03:29:35.919Z,84.16
2016-07-12T03:30:35.907Z,84.06
2016-07-12T03:31:35.894Z,84.26
2016-07-12T03:32:35.883Z,83.97
2016-07-12T03:33:35.871Z,84.26
2016-07-12T03:34:36.565Z,84.26
2016-07-12T03:35:36.556Z,84.35
2016-07-12T03:36:36.543Z,84.55
2016-07-12T03:37:35.823Z,84.06
2016-07-12T03:38:36.526Z,84.06
2016-07-12T03:39:35.799Z,84.64
2016-07-12T03:40:35.787Z,84.16
2016-07-12T03:41:35.776Z,84.06
2016-07-12T03:42:35.764Z,83.39
2016-07-12T03:43:36.465Z,84.16
2016-07-12T03:44:35.744Z,83.68
2016-07-12T03:45:35.731Z,83.78
2016-07-12T03:46:35.715Z,83.68
2016-07-12T03:47:35.717Z,83.78
2016-07-12T03:48:35.699Z,83.72
2016-07-12T03:49:36.392Z,83.53
2016-07-12T03:50:36.383Z,83.72
2016-07-12T03:51:35.670Z,83.63
2016-07-12T03:52:35.662Z,83.53
2016-07-12T03:53:35.636Z,83.49
2016-07-12T03:54:35.622Z,84.11
2016-07-12T03:55:35.641Z,83.72
2016-07-12T03:56:35.602Z,83.72
2016-07-12T03:57:36.293Z,83.72
2016-07-12T03:58:35.591Z,83.53
2016-07-12T03:59:35.568Z,83.72
2016-07-12T04:00:36.262Z,84.3
2016-07-12T04:01:35.549Z,83.63
2016-07-12T04:02:35.531Z,84.11
2016-07-12T04:03:35.520Z,84.2
2016-07-12T04:04:35.506Z,83.72
2016-07-12T04:05:36.204Z,84.01
2016-07-12T04:06:35.483Z,83.72
2016-07-12T04:07:35.474Z,84.01
2016-07-12T04:08:35.469Z,84.01
2016-07-12T04:09:35.449Z,83.53
2016-07-12T04:10:35.437Z,83.53
2016-07-12T04:11:35.427Z,83.53
2016-07-12T04:12:35.413Z,83.53
2016-07-12T04:13:36.110Z,83.53
2016-07-12T04:14:36.097Z,83.05
2016-07-12T04:15:36.088Z,83.44
2016-07-12T04:16:35.366Z,83.53
2016-07-12T04:17:35.354Z,83.44
2016-07-12T04:18:36.051Z,82.96
2016-07-12T04:19:35.336Z,83.53
2016-07-12T04:20:35.318Z,82.86
2016-07-12T04:21:35.306Z,83.25
2016-07-12T04:22:35.302Z,83.05
2016-07-12T04:23:35.992Z,82.57
2016-07-12T04:24:36.179Z,82.86
2016-07-12T04:25:35.970Z,82.96
2016-07-12T04:26:35.970Z,83.25
2016-07-12T04:27:35.239Z,83
2016-07-12T04:28:35.229Z,83
2016-07-12T04:29:35.222Z,83.19
2016-07-12T04:30:35.204Z,83.38
2016-07-12T04:31:35.195Z,82.9
2016-07-12T04:32:35.182Z,83
2016-07-12T04:33:35.166Z,82.81
2016-07-12T04:34:35.867Z,82.32
2016-07-12T04:35:35.145Z,82.32
2016-07-12T04:36:35.134Z,82.71
2016-07-12T04:37:35.839Z,82.62
2016-07-12T04:38:35.110Z,82.9
2016-07-12T04:39:35.806Z,82.52
2016-07-12T04:40:35.806Z,82.71
2016-07-12T04:41:35.081Z,82.52
2016-07-12T04:42:35.079Z,82.32
2016-07-12T04:43:35.057Z,82.62
2016-07-12T04:44:35.050Z,82.71
2016-07-12T04:45:35.034Z,82.9
2016-07-12T04:46:35.022Z,82.81
2016-07-12T04:47:35.719Z,82.62
2016-07-12T04:48:35.706Z,82.62
2016-07-12T04:49:34.991Z,82.52
2016-07-12T04:50:34.978Z,82.71
2016-07-12T04:51:34.965Z,82.23
2016-07-12T04:52:35.662Z,82.42
2016-07-12T04:53:34.947Z,82.62
2016-07-12T04:54:34.935Z,82.52
2016-07-12T04:55:34.928Z,82.32
2016-07-12T04:56:34.915Z,82.32
2016-07-12T04:57:34.896Z,82.42
2016-07-12T04:58:34.887Z,81.85
2016-07-12T04:59:35.595Z,82.71
2016-07-12T05:00:34.862Z,82.52
2016-07-12T05:01:35.559Z,82.42
2016-07-12T05:02:35.548Z,82.42
2016-07-12T05:03:34.827Z,82.04
2016-07-12T05:04:34.821Z,82.42
2016-07-12T05:05:34.807Z,82.71
2016-07-12T05:06:35.502Z,82.42
2016-07-12T05:07:34.781Z,82.71
2016-07-12T05:08:34.772Z,82.81
2016-07-12T05:09:34.760Z,83.09
2016-07-12T05:10:34.751Z,83
2016-07-12T05:11:34.740Z,82.71
2016-07-12T05:12:34.725Z,82.42
2016-07-12T05:13:35.435Z,83.19
2016-07-12T05:14:34.707Z,82.71
2016-07-12T05:15:34.693Z,82.42
2016-07-12T05:16:35.392Z,82.32
2016-07-12T05:17:34.672Z,82.71
2016-07-12T05:18:34.659Z,82.62
2016-07-12T05:19:34.649Z,82.71
2016-07-12T05:20:34.639Z,82.81
2016-07-12T05:21:35.330Z,82.52
2016-07-12T05:22:35.322Z,82.71
2016-07-12T05:23:34.605Z,82.71
2016-07-12T05:24:35.299Z,82.62
2016-07-12T05:25:34.581Z,82.52
2016-07-12T05:26:34.570Z,82.52
2016-07-12T05:27:35.262Z,82.42
2016-07-12T05:28:34.548Z,82.52
2016-07-12T05:29:35.243Z,82.14
2016-07-12T05:30:34.525Z,82.46
2016-07-12T05:31:34.512Z,82.85
2016-07-12T05:32:35.211Z,82.46
2016-07-12T05:33:35.195Z,82.46
2016-07-12T05:34:35.183Z,82.08
2016-07-12T05:35:34.468Z,82.65
2016-07-12T05:36:34.455Z,82.46
2016-07-12T05:37:34.443Z,82.18
2016-07-12T05:38:34.436Z,81.7
2016-07-12T05:39:34.436Z,81.89
2016-07-12T05:40:35.122Z,82.18
2016-07-12T05:41:35.106Z,81.6
2016-07-12T05:42:35.097Z,81.7
2016-07-12T05:43:35.086Z,81.79
2016-07-12T05:44:35.075Z,82.08
2016-07-12T05:45:34.358Z,81.79
2016-07-12T05:46:34.344Z,81.7
2016-07-12T05:47:35.039Z,82.37
2016-07-12T05:48:35.028Z,81.79
2016-07-12T05:49:34.309Z,81.41
2016-07-12T05:50:34.303Z,81.6
2016-07-12T05:51:34.286Z,82.08
2016-07-12T05:52:34.986Z,81.7
2016-07-12T05:53:34.970Z,81.79
2016-07-12T05:54:34.257Z,82.21
2016-07-12T05:55:34.947Z,82.41
2016-07-12T05:56:34.941Z,81.45
2016-07-12T05:57:34.930Z,81.45
2016-07-12T05:58:34.208Z,81.12
2016-07-12T05:59:34.906Z,82.03
2016-07-12T06:00:34.894Z,81.54
2016-07-12T06:01:34.174Z,81.16
2016-07-12T06:02:34.875Z,81.16
2016-07-12T06:03:34.860Z,80.87
2016-07-12T06:04:34.853Z,81.07
2016-07-12T06:05:34.140Z,80.78
2016-07-12T06:06:34.829Z,81.07
2016-07-12T06:07:34.108Z,81.07
2016-07-12T06:08:34.812Z,81.07
2016-07-12T06:09:34.805Z,80.78
2016-07-12T06:10:34.075Z,81.07
2016-07-12T06:11:34.067Z,80.87
2016-07-12T06:12:34.762Z,80.87
2016-07-12T06:13:34.754Z,80.58
2016-07-12T06:14:34.042Z,80.3
2016-07-12T06:15:34.020Z,79.82
2016-07-12T06:16:34.008Z,79.96
2016-07-12T06:17:34.719Z,80.24
2016-07-12T06:18:33.991Z,79.19
2016-07-12T06:19:33.978Z,78.52
2016-07-12T06:20:33.973Z,78.13
2016-07-12T06:21:33.959Z,78.13
2016-07-12T06:22:33.946Z,78.36
2016-07-12T06:23:34.701Z,78.65
2016-07-12T06:24:33.928Z,78.13
2016-07-12T06:25:33.915Z,78.42
2016-07-12T06:26:33.906Z,78.7
2016-07-12T06:27:33.897Z,78.8
2016-07-12T06:28:33.883Z,79.57
2016-07-12T06:29:34.584Z,79.32
2016-07-12T06:30:34.576Z,79.32
2016-07-12T06:31:33.854Z,78.17
2016-07-12T06:32:33.843Z,78.17
2016-07-12T06:33:33.834Z,78.55
2016-07-12T06:34:34.530Z,78.27
2016-07-12T06:35:34.524Z,77.88
2016-07-12T06:36:33.806Z,78.08
2016-07-12T06:37:34.505Z,78.55
2016-07-12T06:38:33.785Z,78.45
2016-07-12T06:39:34.477Z,78.75
2016-07-12T06:40:33.760Z,78.17
2016-07-12T06:41:34.469Z,78.08
2016-07-12T06:42:33.738Z,78.55
2016-07-12T06:43:33.734Z,77.69
2016-07-12T06:44:33.720Z,77.98
2016-07-12T06:45:33.713Z,78.08
2016-07-12T06:46:33.704Z,77.69
2016-07-12T06:47:33.686Z,78.27
2016-07-12T06:48:33.677Z,77.5
2016-07-12T06:49:34.382Z,77.59
2016-07-12T06:50:33.660Z,77.92
2016-07-12T06:51:34.361Z,77.4
2016-07-12T06:52:33.638Z,77.53
2016-07-12T06:53:34.331Z,77.92
2016-07-12T06:54:33.616Z,77.5
2016-07-12T06:55:33.605Z,77.53
2016-07-12T06:56:33.594Z,77.73
2016-07-12T06:57:34.291Z,77.44
2016-07-12T06:58:33.578Z,76.96
2016-07-12T06:59:33.567Z,77.15
2016-07-12T07:00:33.554Z,77.06
2016-07-12T07:01:33.544Z,76.96
2016-07-12T07:02:33.531Z,76.77
2016-07-12T07:03:33.527Z,76.48
2016-07-12T07:04:34.218Z,76.67
2016-07-12T07:05:33.505Z,76
2016-07-12T07:06:33.499Z,77.34
2016-07-12T07:07:33.485Z,76
2016-07-12T07:08:33.475Z,76
2016-07-12T07:09:34.171Z,76.42
2016-07-12T07:10:34.158Z,75.46
2016-07-12T07:11:33.451Z,75.56
2016-07-12T07:12:33.435Z,75.46
2016-07-12T07:13:34.132Z,75.65
2016-07-12T07:14:34.125Z,75.46
2016-07-12T07:15:33.402Z,75.27
2016-07-12T07:16:34.100Z,74.79
2016-07-12T07:17:34.089Z,75.37
2016-07-12T07:18:33.377Z,75.56
2016-07-12T07:19:33.367Z,74.79
2016-07-12T07:20:34.059Z,74.6
2016-07-12T07:21:33.345Z,74.6
2016-07-12T07:22:33.337Z,74.3
2016-07-12T07:23:33.323Z,74.6
2016-07-12T07:24:34.024Z,74.79
2016-07-12T07:25:33.304Z,75.17
2016-07-12T07:26:33.295Z,75.37
2016-07-12T07:27:33.287Z,74.88
2016-07-12T07:28:33.995Z,74.69
2016-07-12T07:29:33.269Z,74.79
2016-07-12T07:30:33.258Z,73.92
2016-07-12T07:31:33.250Z,74.02
2016-07-12T07:32:33.240Z,74.02
2016-07-12T07:33:33.228Z,74.88
2016-07-12T07:34:33.222Z,74.4
2016-07-12T07:35:33.216Z,73.57
2016-07-12T07:36:33.211Z,72.8
2016-07-12T07:37:33.900Z,71.59
2016-07-12T07:38:33.189Z,68.26
2016-07-12T07:39:33.227Z,67.4
2016-07-12T07:40:33.165Z,65.2
2016-07-12T07:41:33.160Z,62.66
2016-07-12T07:42:33.162Z,60.96
2016-07-12T07:43:33.850Z,60.72
2016-07-12T07:44:33.139Z,59.01
2016-07-12T07:45:33.132Z,60.08
2016-07-12T07:46:33.122Z,60.41
2016-07-12T07:47:33.118Z,60.63
2016-07-12T07:48:33.107Z,57.18
2016-07-12T07:49:33.812Z,57.28
2016-07-12T07:50:33.804Z,59.69
2016-07-12T07:51:33.092Z,59.63
2016-07-12T07:52:33.084Z,59.15
2016-07-12T07:53:33.076Z,60.44
2016-07-12T07:54:33.070Z,59.28
2016-07-12T07:55:33.772Z,60.08
2016-07-12T07:56:33.060Z,59.44
2016-07-12T07:57:33.056Z,60.53
2016-07-12T07:58:33.754Z,60.02
2016-07-12T07:59:33.039Z,61.37
2016-07-12T08:00:33.742Z,61.7
2016-07-12T08:01:33.735Z,62.76
2016-07-12T08:02:33.738Z,61.22
2016-07-12T08:03:33.013Z,58.5
2016-07-12T08:04:33.768Z,58.47
2016-07-12T08:05:33.008Z,59.72
2016-07-12T08:06:33.703Z,55.43
2016-07-12T08:07:32.991Z,56.16
2016-07-12T08:08:33.692Z,57.4
2016-07-12T08:09:33.687Z,59.47
2016-07-12T08:10:33.679Z,57.67
2016-07-12T08:11:32.968Z,59.11
2016-07-12T08:12:32.961Z,55.56
2016-07-12T08:13:33.663Z,55.13
2016-07-12T08:14:33.655Z,55.68
2016-07-12T08:15:32.945Z,55.62
2016-07-12T08:16:32.940Z,56.34
2016-07-12T08:17:33.641Z,55.92
2016-07-12T08:18:32.932Z,54.21
2016-07-12T08:19:32.923Z,53.45
2016-07-12T08:20:32.921Z,52.51
2016-07-12T08:21:32.918Z,52.66
2016-07-12T08:22:32.910Z,51.86
2016-07-12T08:23:32.906Z,49.97
2016-07-12T08:24:33.607Z,48.73
2016-07-12T08:25:33.104Z,48.47
2016-07-12T08:26:33.604Z,50.74
2016-07-12T08:27:32.893Z,53.09
2016-07-12T08:28:32.890Z,53.33
2016-07-12T08:29:33.599Z,51.68
2016-07-12T08:30:33.588Z,51.04
2016-07-12T08:31:32.971Z,51.35
2016-07-12T08:32:32.878Z,49.92
2016-07-12T08:33:32.874Z,49.63
2016-07-12T08:34:32.868Z,49.46
2016-07-12T08:35:32.867Z,48.9
2016-07-12T08:36:33.567Z,47.55
2016-07-12T08:37:32.870Z,48.15
2016-07-12T08:38:32.860Z,46.52
2016-07-12T08:39:32.853Z,44.89
2016-07-12T08:40:32.855Z,45.28
2016-07-12T08:41:33.557Z,45.36
2016-07-12T08:42:32.861Z,45.77
2016-07-12T08:43:32.843Z,45.28
2016-07-12T08:44:32.842Z,46.23
2016-07-12T08:45:32.843Z,46.81
2016-07-12T08:46:32.842Z,45.45
2016-07-12T08:47:33.550Z,45.18
2016-07-12T08:48:32.837Z,46.45
2016-07-12T08:49:32.836Z,45.09
2016-07-12T08:50:33.545Z,44.14
2016-07-12T08:51:32.833Z,44.92
2016-07-12T08:52:33.536Z,46.35
2016-07-12T08:53:32.829Z,46.72
2016-07-12T08:54:32.825Z,49.27
2016-07-12T08:55:33.532Z,51.09
2016-07-12T08:56:32.821Z,51.45
2016-07-12T08:57:32.818Z,51.35
2016-07-12T08:58:32.818Z,49.61
2016-07-12T08:59:33.519Z,49.24
2016-07-12T09:00:32.813Z,49.54
2016-07-12T09:01:32.805Z,50.21
2016-07-12T09:02:32.801Z,49.92
2016-07-12T09:03:32.799Z,52.03
2016-07-12T09:04:32.793Z,54.3
2016-07-12T09:05:32.789Z,53.33
2016-07-12T09:06:32.783Z,54.47
2016-07-12T09:07:33.490Z,53.99
2016-07-12T09:08:32.776Z,54.57
2016-07-12T09:09:32.770Z,55.24
2016-07-12T09:10:32.766Z,56.63
2016-07-12T09:11:33.472Z,57.31
2016-07-12T09:12:32.757Z,58.37
2016-07-12T09:13:32.753Z,58.95
2016-07-12T09:14:33.458Z,57.29
2016-07-12T09:15:33.453Z,56.45
2016-07-12T09:16:32.746Z,55.53
2016-07-12T09:17:32.736Z,54.47
2016-07-12T09:18:32.734Z,54.11
2016-07-12T09:19:32.732Z,54.17
2016-07-12T09:20:33.431Z,54.08
2016-07-12T09:21:33.430Z,53.14
2016-07-12T09:22:32.724Z,53.5
2016-07-12T09:23:32.768Z,51.13
2016-07-12T09:24:33.430Z,51.54
2016-07-12T09:25:32.712Z,49.54
2016-07-12T09:26:32.708Z,49.75
2016-07-12T09:27:32.706Z,48.59
2016-07-12T09:28:32.704Z,48.42
2016-07-12T09:29:32.701Z,48.35
2016-07-12T09:30:33.406Z,48.52
2016-07-12T09:31:32.698Z,47.55
2016-07-12T09:32:32.697Z,47.16
2016-07-12T09:33:32.693Z,47.47
2016-07-12T09:34:33.401Z,46.5
2016-07-12T09:35:33.401Z,47.59
2016-07-12T09:36:32.696Z,48.97
2016-07-12T09:37:33.402Z,49.44
2016-07-12T09:38:32.688Z,50.21
2016-07-12T09:39:33.392Z,50.35
2016-07-12T09:40:33.395Z,50.79
2016-07-12T09:41:32.697Z,49.73
2016-07-12T09:42:33.398Z,50.57
2016-07-12T09:43:33.387Z,51.62
2016-07-12T09:44:33.382Z,51.06
2016-07-12T09:45:32.674Z,51.04
2016-07-12T09:46:33.383Z,49.99
2016-07-12T09:47:32.670Z,49.8
2016-07-12T09:48:33.377Z,49.54
2016-07-12T09:49:32.666Z,50.57
2016-07-12T09:50:33.373Z,52.95
2016-07-12T09:51:33.368Z,53.69
2016-07-12T09:52:33.365Z,53.89
2016-07-12T09:53:33.363Z,54.63
2016-07-12T09:54:32.651Z,55.09
2016-07-12T09:55:32.650Z,55.55
2016-07-12T09:56:32.646Z,55.93
2016-07-12T09:57:33.351Z,56.99
2016-07-12T09:58:32.640Z,57.38
2016-07-12T09:59:33.345Z,57.38
2016-07-12T10:00:33.338Z,58.64
2016-07-12T10:01:33.339Z,59.19
2016-07-12T10:02:32.622Z,58.64
2016-07-12T10:03:33.326Z,59.02
2016-07-12T10:04:32.614Z,57.38
2016-07-12T10:05:32.614Z,57.19
2016-07-12T10:06:32.619Z,58.15
2016-07-12T10:07:32.602Z,58.9
2016-07-12T10:08:32.595Z,58.54
2016-07-12T10:09:32.590Z,58.83
2016-07-12T10:10:32.589Z,58.73
2016-07-12T10:11:32.579Z,58.64
2016-07-12T10:12:33.285Z,57.19
2016-07-12T10:13:32.593Z,56.18
2016-07-12T10:14:33.277Z,55.34
2016-07-12T10:15:33.270Z,53.65
2016-07-12T10:16:33.264Z,51.35
2016-07-12T10:17:32.555Z,50.12
2016-07-12T10:18:33.264Z,50.5
2016-07-12T10:19:32.549Z,48.69
2016-07-12T10:20:32.548Z,47.83
2016-07-12T10:21:32.548Z,47.64
2016-07-12T10:22:33.253Z,48.22
2016-07-12T10:23:33.253Z,46.98
2016-07-12T10:24:32.543Z,47.08
2016-07-12T10:25:33.454Z,46.64
2016-07-12T10:26:32.544Z,45.97
2016-07-12T10:27:32.540Z,45.67
2016-07-12T10:28:32.539Z,45.18
2016-07-12T10:29:33.247Z,46.74
2016-07-12T10:31:33.246Z,46.06
2016-07-12T10:32:32.542Z,45.65
2016-07-12T10:33:33.249Z,46.21
2016-07-12T10:35:05.479Z,46.04
2016-07-12T10:35:33.254Z,45.87
2016-07-12T10:36:32.552Z,45.67
2016-07-12T10:37:32.544Z,45.57
2016-07-12T10:38:32.547Z,42.87
2016-07-12T10:39:32.547Z,43.29
2016-07-12T10:40:32.545Z,43.96
2016-07-12T10:41:32.550Z,43.48
2016-07-12T10:42:33.262Z,44.06
2016-07-12T10:43:33.263Z,44.94
2016-07-12T10:44:33.262Z,42.43
2016-07-12T10:45:32.555Z,41.86
2016-07-12T10:46:32.555Z,43.52
2016-07-12T10:47:33.272Z,43.99
2016-07-12T10:48:32.562Z,44.43
2016-07-12T10:49:32.564Z,43.24
2016-07-12T10:50:33.270Z,40.83
2016-07-12T10:51:33.272Z,42.5
2016-07-12T10:52:32.570Z,42.1
2016-07-12T10:53:32.574Z,43.34
2016-07-12T10:54:33.282Z,45.57
2016-07-12T10:55:33.282Z,44.12
2016-07-12T10:56:33.280Z,44.58
2016-07-12T10:57:33.288Z,43.32
2016-07-12T10:58:32.574Z,43.41
2016-07-12T10:59:32.577Z,43.44
2016-07-12T11:00:33.287Z,42.27
2016-07-12T11:01:32.578Z,44.24
2016-07-12T11:02:32.586Z,44.99
2016-07-12T11:03:33.287Z,43.82
2016-07-12T11:04:32.633Z,45.62
2016-07-12T11:05:33.316Z,44.92
2016-07-12T11:06:32.582Z,42.43
2016-07-12T11:07:33.346Z,43.41
2016-07-12T11:08:33.296Z,42.54
2016-07-12T11:09:32.581Z,42.46
2016-07-12T11:10:32.586Z,42.19
2016-07-12T11:11:33.296Z,43.48
2016-07-12T11:12:32.591Z,42.53
2016-07-12T11:13:32.588Z,40.99
2016-07-12T11:14:33.296Z,40.13
2016-07-12T11:15:33.302Z,38.89
2016-07-12T11:16:33.296Z,38.1
2016-07-12T11:17:33.301Z,37.35
2016-07-12T11:18:33.315Z,38.2
2016-07-12T11:19:32.597Z,38.69
2016-07-12T11:20:32.599Z,38.48
2016-07-12T11:21:33.307Z,39.82
2016-07-12T11:22:33.310Z,42.21
2016-07-12T11:23:32.604Z,41.71
2016-07-12T11:24:33.315Z,43.36
2016-07-12T11:25:32.657Z,42.11
2016-07-12T11:26:32.613Z,40.88
2016-07-12T11:27:33.325Z,40.68
2016-07-12T11:28:33.318Z,39.04
2016-07-12T11:29:32.618Z,38.93
2016-07-12T11:30:32.624Z,39.98
2016-07-12T11:31:33.330Z,39.78
2016-07-12T11:32:32.629Z,37.84
2016-07-12T11:33:32.623Z,37.35
2016-07-12T11:34:33.331Z,38.42
2016-07-12T11:35:32.628Z,38.54
2016-07-12T11:36:33.346Z,35.25
2016-07-12T11:37:32.633Z,37.87
2016-07-12T11:38:32.631Z,37.21
2016-07-12T11:39:32.642Z,36.35
2016-07-12T11:40:33.348Z,36.25
2016-07-12T11:41:32.639Z,35.49
2016-07-12T11:42:32.676Z,35.88
2016-07-12T11:43:32.650Z,35.8
2016-07-12T11:44:32.648Z,32.87
2016-07-12T11:45:32.648Z,32.58
2016-07-12T11:46:32.651Z,34.05
2016-07-12T11:47:33.367Z,34.69
2016-07-12T11:48:32.663Z,35.34
2016-07-12T11:49:32.666Z,36.77
2016-07-12T11:50:33.381Z,36.85
2016-07-12T11:51:32.676Z,37.6
2016-07-12T11:52:32.678Z,37.06
2016-07-12T11:53:33.380Z,37.64
2016-07-12T11:54:33.381Z,36.88
2016-07-12T11:55:32.676Z,36.75
2016-07-12T11:56:32.676Z,38.73
2016-07-12T11:57:32.675Z,39.8
2016-07-12T11:58:32.675Z,38.73
2016-07-12T11:59:32.691Z,40.95
2016-07-12T12:00:33.385Z,40.36
2016-07-12T12:01:32.677Z,40.95
2016-07-12T12:02:33.386Z,41.08
2016-07-12T12:03:32.678Z,39.16
2016-07-12T12:04:32.678Z,40.06
2016-07-12T12:05:32.682Z,38.98
2016-07-12T12:06:32.680Z,38.98
2016-07-12T12:07:32.755Z,39.37
2016-07-12T12:08:32.681Z,38.7
2016-07-12T12:09:33.391Z,39
2016-07-12T12:10:32.682Z,36.98
2016-07-12T12:11:33.391Z,37.1
2016-07-12T12:12:33.392Z,36.8
2016-07-12T12:13:32.682Z,38.44
2016-07-12T12:14:33.396Z,38.24
2016-07-12T12:15:33.409Z,37.76
2016-07-12T12:16:32.689Z,36.49
2016-07-12T12:17:33.398Z,35.13
2016-07-12T12:18:32.690Z,36.49
2016-07-12T12:19:33.400Z,35.93
2016-07-12T12:20:32.694Z,35.63
2016-07-12T12:21:33.401Z,37
2016-07-12T12:22:33.401Z,37.19
2016-07-12T12:23:32.699Z,37.37
2016-07-12T12:24:33.406Z,37.14
2016-07-12T12:25:32.912Z,38.29
2016-07-12T12:26:32.701Z,40.5
2016-07-12T12:27:32.702Z,40.99
2016-07-12T12:28:32.705Z,40.19
2016-07-12T12:29:32.699Z,41.96
2016-07-12T12:30:32.711Z,42.33
2016-07-12T12:31:32.706Z,43.2
2016-07-12T12:32:32.703Z,41.53
2016-07-12T12:33:33.417Z,42.21
2016-07-12T12:34:33.411Z,43.26
2016-07-12T12:35:33.420Z,43.37
2016-07-12T12:36:33.431Z,42.4
2016-07-12T12:37:33.405Z,41.36
2016-07-12T12:38:32.693Z,43.18
2016-07-12T12:39:33.400Z,43.18
2016-07-12T12:40:32.695Z,43.27
2016-07-12T12:41:32.689Z,44.9
2016-07-12T12:42:32.689Z,45
2016-07-12T12:43:32.685Z,44.81
2016-07-12T12:44:32.682Z,44.03
2016-07-12T12:45:32.678Z,45.29
2016-07-12T12:46:32.676Z,44.88
2016-07-12T12:47:32.672Z,44.68
2016-07-12T12:48:33.378Z,43.93
2016-07-12T12:49:33.374Z,44.03
2016-07-12T12:50:33.375Z,45.78
2016-07-12T12:51:32.661Z,45
2016-07-12T12:52:32.655Z,44.51
2016-07-12T12:53:32.654Z,43.47
2016-07-12T12:54:32.651Z,43.68
2016-07-12T12:55:32.650Z,41.18
2016-07-12T12:56:33.352Z,41.1
2016-07-12T12:57:32.642Z,40.81